Time;durP1;ratioP1;P1;durP2;ratioP2;P2;SDS_P1;SDS_P2;PMS_P1;PMS_P2;Temp;Humidity;BMP_temperature;BMP_pressure;BME280_temperature;BME280_humidity;BME280_pressure;Samples;Min_cycle;Max_cycle;Signal;HPM_P1;HPM_P2
2022/03/19 00:02:06;;;;;;;43.97;26.57;;;9.00;99.90;;;;;;7384376;19;20603;-73
2022/03/19 00:04:32;;;;;;;40.87;25.37;;;8.90;99.90;;;;;;7384075;19;20138;-80
2022/03/19 00:06:58;;;;;;;43.00;26.30;;;9.10;99.90;;;;;;7382134;19;20185;-74
2022/03/19 00:09:24;;;;;;;46.80;27.00;;;9.10;99.90;;;;;;7384643;19;20134;-73
2022/03/19 00:11:50;;;;;;;43.87;26.67;;;9.10;99.90;;;;;;7382241;19;20142;-73
2022/03/19 00:14:17;;;;;;;38.80;24.93;;;9.20;99.90;;;;;;7385286;19;20202;-78
2022/03/19 00:16:43;;;;;;;41.47;25.93;;;9.20;99.90;;;;;;7382023;19;20134;-73
2022/03/19 00:19:08;;;;;;;43.47;25.63;;;9.10;99.90;;;;;;7382894;19;20123;-74
2022/03/19 00:21:37;;;;;;;44.20;25.43;;;9.20;99.90;;;;;;7384294;19;20134;-72
2022/03/19 00:24:04;;;;;;;41.80;26.03;;;9.20;99.90;;;;;;7383759;19;20169;-75
2022/03/19 00:26:30;;;;;;;40.60;25.77;;;9.20;99.90;;;;;;7383683;19;20132;-75
2022/03/19 00:28:56;;;;;;;43.27;26.73;;;9.30;99.90;;;;;;7385163;19;20168;-74
2022/03/19 00:31:23;;;;;;;41.03;27.23;;;9.20;99.90;;;;;;7386830;19;20151;-76
2022/03/19 00:33:49;;;;;;;43.83;26.77;;;9.20;99.90;;;;;;7381682;19;20314;-72
2022/03/19 00:36:15;;;;;;;43.83;26.23;;;9.20;99.90;;;;;;7383894;19;20123;-74
2022/03/19 00:38:41;;;;;;;40.83;25.40;;;9.20;99.90;;;;;;7383054;19;20127;-72
2022/03/19 00:41:07;;;;;;;43.80;25.50;;;9.20;99.90;;;;;;7386649;19;20130;-74
2022/03/19 00:43:34;;;;;;;42.63;26.40;;;9.20;99.90;;;;;;7390763;19;20151;-73
2022/03/19 00:46:00;;;;;;;39.27;26.10;;;9.20;99.90;;;;;;7391430;19;20598;-73
2022/03/19 00:48:25;;;;;;;42.23;26.50;;;9.00;99.90;;;;;;7389157;19;20259;-75
2022/03/19 00:50:51;;;;;;;41.30;26.07;;;9.10;99.90;;;;;;7389701;19;20159;-72
2022/03/19 00:53:17;;;;;;;41.17;26.30;;;9.10;99.90;;;;;;7392542;19;20146;-72
2022/03/19 00:55:43;;;;;;;41.33;25.33;;;9.20;99.90;;;;;;7391707;19;20487;-72
2022/03/19 00:58:08;;;;;;;39.53;25.17;;;8.90;99.90;;;;;;7389946;19;20134;-74
2022/03/19 01:00:34;;;;;;;44.60;26.00;;;8.80;99.90;;;;;;7389175;19;20630;-74
2022/03/19 01:03:00;;;;;;;44.00;27.53;;;8.90;99.90;;;;;;7390306;19;20131;-73
2022/03/19 01:05:26;;;;;;;43.87;27.03;;;8.80;99.90;;;;;;7390249;19;20135;-73
2022/03/19 01:07:55;;;;;;;40.23;25.13;;;8.90;99.90;;;;;;7389964;19;20198;-72
2022/03/19 01:10:26;;;;;;;41.97;25.67;;;9.00;99.90;;;;;;7389120;19;20138;-72
2022/03/19 01:12:54;;;;;;;39.37;25.70;;;9.10;99.90;;;;;;7386650;19;20158;-74
2022/03/19 01:15:21;;;;;;;40.30;25.00;;;9.00;99.90;;;;;;7390439;19;20135;-74
2022/03/19 01:17:47;;;;;;;40.30;25.13;;;8.90;99.90;;;;;;7388639;19;20139;-73
2022/03/19 01:20:14;;;;;;;38.03;24.03;;;8.90;99.90;;;;;;7391891;19;20134;-72
2022/03/19 01:22:42;;;;;;;40.13;24.53;;;9.00;99.90;;;;;;7388678;19;20896;-73
2022/03/19 01:25:10;;;;;;;36.03;23.67;;;9.00;99.90;;;;;;7387899;19;20123;-72
2022/03/19 01:27:37;;;;;;;40.83;24.17;;;8.90;99.90;;;;;;7390550;19;20158;-73
2022/03/19 01:30:06;;;;;;;40.03;25.50;;;9.00;99.90;;;;;;7389084;19;20131;-72
2022/03/19 01:32:32;;;;;;;38.47;23.80;;;9.10;99.90;;;;;;7386984;19;20230;-72
2022/03/19 01:34:59;;;;;;;35.13;22.67;;;9.10;99.90;;;;;;7387375;19;20152;-74
2022/03/19 01:37:25;;;;;;;36.53;22.67;;;9.10;99.90;;;;;;7388978;19;20155;-72
2022/03/19 01:39:55;;;;;;;38.17;24.43;;;8.90;99.90;;;;;;7389860;19;20134;-71
2022/03/19 01:42:29;;;;;;;38.40;23.43;;;8.90;99.90;;;;;;7393520;19;20155;-73
2022/03/19 01:44:55;;;;;;;35.63;22.93;;;8.90;99.90;;;;;;7389112;19;20130;-72
2022/03/19 01:47:23;;;;;;;37.37;23.97;;;8.90;99.90;;;;;;7390204;19;20163;-74
2022/03/19 01:49:49;;;;;;;35.20;22.50;;;8.90;99.90;;;;;;7389019;19;20139;-72
2022/03/19 01:52:16;;;;;;;35.60;23.60;;;8.90;99.90;;;;;;7388062;19;20139;-72
2022/03/19 01:54:44;;;;;;;37.20;22.70;;;8.90;99.90;;;;;;7387067;19;20163;-72
2022/03/19 01:57:23;;;;;;;36.03;23.10;;;8.90;99.90;;;;;;7386231;19;20126;-74
2022/03/19 01:59:50;;;;;;;33.40;22.93;;;8.90;99.90;;;;;;7388756;19;20156;-74
2022/03/19 02:02:16;;;;;;;36.63;23.00;;;8.90;99.90;;;;;;7387322;19;20202;-72
2022/03/19 02:04:42;;;;;;;36.13;23.13;;;8.70;99.90;;;;;;7392690;19;20122;-71
2022/03/19 02:07:10;;;;;;;37.10;22.73;;;8.80;99.90;;;;;;7388083;19;20137;-72
2022/03/19 02:09:37;;;;;;;35.10;22.27;;;8.90;99.90;;;;;;7387887;19;20127;-72
2022/03/19 02:12:03;;;;;;;34.27;22.10;;;8.90;99.90;;;;;;7384955;19;20139;-74
2022/03/19 02:14:41;;;;;;;37.10;23.30;;;8.90;99.90;;;;;;7387576;19;20152;-71
2022/03/19 02:17:09;;;;;;;34.93;22.23;;;8.80;99.90;;;;;;7385190;19;20182;-72
2022/03/19 02:19:49;;;;;;;32.60;22.63;;;8.80;99.90;;;;;;7386855;19;20158;-74
2022/03/19 02:22:17;;;;;;;35.93;21.53;;;8.90;99.90;;;;;;7387736;19;20476;-72
2022/03/19 02:27:27;;;;;;;35.83;22.83;;;8.90;99.90;;;;;;7390716;19;20166;-74
2022/03/19 02:29:53;;;;;;;34.87;21.30;;;8.90;99.90;;;;;;7388055;19;20490;-73
2022/03/19 02:32:19;;;;;;;36.50;22.93;;;8.90;99.90;;;;;;7384896;19;20732;-72
2022/03/19 02:34:45;;;;;;;36.37;22.17;;;8.90;99.90;;;;;;7386955;19;20139;-73
2022/03/19 02:37:10;;;;;;;35.83;21.43;;;8.90;99.90;;;;;;7384398;19;20460;-72
2022/03/19 02:39:36;;;;;;;32.60;22.33;;;8.90;99.90;;;;;;7385322;19;20489;-71
2022/03/19 02:42:05;;;;;;;36.30;21.37;;;8.50;99.90;;;;;;7389172;19;20130;-71
2022/03/19 02:44:31;;;;;;;36.67;22.03;;;8.20;99.90;;;;;;7386732;19;20207;-72
2022/03/19 02:47:03;;;;;;;35.30;22.00;;;8.40;99.90;;;;;;7390354;19;20478;-72
2022/03/19 02:49:29;;;;;;;32.30;22.00;;;8.50;99.90;;;;;;7390842;19;20142;-72
2022/03/19 02:51:56;;;;;;;32.57;21.60;;;8.50;99.90;;;;;;7390093;19;20594;-73
2022/03/19 02:54:24;;;;;;;33.67;21.80;;;8.70;99.90;;;;;;7386953;19;20942;-72
2022/03/19 02:56:51;;;;;;;36.37;23.07;;;8.80;99.90;;;;;;7387703;19;20146;-72
2022/03/19 02:59:20;;;;;;;35.47;22.03;;;8.70;99.90;;;;;;7390850;19;20151;-71
2022/03/19 03:01:55;;;;;;;33.33;22.33;;;8.80;99.90;;;;;;7387327;19;20442;-73
2022/03/19 03:04:21;;;;;;;38.77;22.20;;;8.80;99.90;;;;;;7386740;19;20502;-71
2022/03/19 03:06:50;;;;;;;35.50;22.57;;;8.80;99.90;;;;;;7387566;19;20130;-72
2022/03/19 03:09:20;;;;;;;33.10;22.20;;;8.80;99.90;;;;;;7386368;19;20134;-73
2022/03/19 03:11:46;;;;;;;33.73;21.40;;;8.70;99.90;;;;;;7388134;19;20190;-73
2022/03/19 03:14:13;;;;;;;34.97;21.43;;;8.90;99.90;;;;;;7390166;19;20607;-74
2022/03/19 03:16:41;;;;;;;34.40;22.80;;;8.80;99.90;;;;;;7383820;19;20221;-73
2022/03/19 03:19:11;;;;;;;39.63;22.40;;;8.80;99.90;;;;;;7384185;19;20138;-73
2022/03/19 03:21:39;;;;;;;32.03;21.43;;;8.80;99.90;;;;;;7383725;19;20134;-73
2022/03/19 03:24:06;;;;;;;31.43;21.47;;;8.70;99.90;;;;;;7387385;19;20169;-72
2022/03/19 03:26:32;;;;;;;34.77;22.20;;;8.80;99.90;;;;;;7383058;19;20142;-71
2022/03/19 03:28:58;;;;;;;32.83;21.90;;;8.70;99.90;;;;;;7385711;19;20143;-73
2022/03/19 03:31:25;;;;;;;29.90;21.03;;;8.70;99.90;;;;;;7386637;19;20150;-73
2022/03/19 03:33:51;;;;;;;33.47;21.23;;;8.60;99.90;;;;;;7386108;19;20134;-72
2022/03/19 03:36:17;;;;;;;34.50;22.47;;;8.60;99.90;;;;;;7386609;19;20148;-73
2022/03/19 03:38:43;;;;;;;35.67;21.87;;;8.70;99.90;;;;;;7388207;19;20131;-73
2022/03/19 03:41:09;;;;;;;31.07;20.67;;;8.60;99.90;;;;;;7388916;19;20131;-71
2022/03/19 03:43:35;;;;;;;32.57;21.57;;;8.50;99.90;;;;;;7383628;19;20130;-72
2022/03/19 03:46:01;;;;;;;35.30;21.90;;;8.50;99.90;;;;;;7389494;19;20133;-72
2022/03/19 03:48:27;;;;;;;38.00;22.40;;;8.40;99.90;;;;;;7384282;19;20146;-72
2022/03/19 03:50:55;;;;;;;36.63;21.20;;;8.40;99.90;;;;;;7385189;19;20135;-73
2022/03/19 03:53:24;;;;;;;35.57;21.40;;;8.40;99.90;;;;;;7386071;19;20147;-71
2022/03/19 03:55:50;;;;;;;33.23;20.60;;;8.50;99.90;;;;;;7384845;19;20213;-71
2022/03/19 03:58:16;;;;;;;31.87;20.53;;;8.50;99.90;;;;;;7382934;19;20131;-73
2022/03/19 04:00:43;;;;;;;33.33;20.00;;;8.40;99.90;;;;;;7384041;19;20149;-72
2022/03/19 04:03:09;;;;;;;37.13;21.87;;;8.50;99.90;;;;;;7381944;19;20520;-73
2022/03/19 04:05:35;;;;;;;31.03;19.80;;;8.40;99.90;;;;;;7388421;19;20249;-74
2022/03/19 04:08:04;;;;;;;34.20;20.97;;;8.40;99.90;;;;;;7384712;19;20612;-73
2022/03/19 04:10:31;;;;;;;34.50;20.80;;;8.40;99.90;;;;;;7386658;19;20150;-72
2022/03/19 04:12:58;;;;;;;34.77;21.00;;;8.50;99.90;;;;;;7385470;19;20127;-72
2022/03/19 04:15:24;;;;;;;30.87;19.83;;;8.50;99.90;;;;;;7383470;19;20138;-72
2022/03/19 04:17:50;;;;;;;32.47;20.73;;;8.40;99.90;;;;;;7390890;19;20485;-74
2022/03/19 04:20:16;;;;;;;34.83;21.27;;;8.40;99.90;;;;;;7392248;19;20449;-71
2022/03/19 04:22:47;;;;;;;31.90;20.90;;;8.30;99.90;;;;;;7391741;19;20486;-72
2022/03/19 04:25:15;;;;;;;32.30;20.90;;;8.30;99.90;;;;;;7391778;19;20156;-74
2022/03/19 04:27:43;;;;;;;30.47;19.97;;;8.30;99.90;;;;;;7388369;19;20151;-73
2022/03/19 04:30:15;;;;;;;33.03;20.77;;;8.20;99.90;;;;;;7394169;19;20131;-72
2022/03/19 04:32:44;;;;;;;33.40;20.20;;;8.20;99.90;;;;;;7389514;19;20142;-73
2022/03/19 04:38:02;;;;;;;34.17;20.50;;;8.20;99.90;;;;;;7389448;19;20725;-73
2022/03/19 04:40:29;;;;;;;32.57;20.20;;;8.20;99.90;;;;;;7389362;19;20139;-74
2022/03/19 04:42:54;;;;;;;34.00;20.50;;;8.20;99.90;;;;;;7391726;19;20721;-74
2022/03/19 04:45:20;;;;;;;35.53;20.63;;;8.30;99.90;;;;;;7394745;19;20148;-71
2022/03/19 04:47:46;;;;;;;30.77;19.27;;;8.20;99.90;;;;;;7390681;19;20138;-72
2022/03/19 04:50:12;;;;;;;35.60;22.03;;;8.20;99.90;;;;;;7394486;19;20149;-71
2022/03/19 04:52:38;;;;;;;33.93;19.70;;;8.10;99.90;;;;;;7399350;19;20771;-71
2022/03/19 04:55:06;;;;;;;31.90;21.40;;;8.10;99.90;;;;;;7397016;19;20131;-73
2022/03/19 04:57:32;;;;;;;35.77;21.10;;;8.10;99.90;;;;;;7388846;19;20138;-72
2022/03/19 04:59:58;;;;;;;31.17;19.97;;;8.10;99.90;;;;;;7390400;19;20496;-72
2022/03/19 05:02:24;;;;;;;32.67;20.07;;;8.20;99.90;;;;;;7389141;19;20130;-73
2022/03/19 05:04:57;;;;;;;33.80;20.20;;;8.20;99.90;;;;;;7391028;19;20130;-71
2022/03/19 05:07:24;;;;;;;32.90;21.03;;;8.20;99.90;;;;;;7389739;19;20129;-72
2022/03/19 05:12:40;;;;;;;33.53;21.43;;;8.20;99.90;;;;;;7389067;19;20134;-71
2022/03/19 05:15:10;;;;;;;35.33;20.43;;;8.20;99.90;;;;;;7392457;19;20145;-72
2022/03/19 05:17:36;;;;;;;33.23;19.30;;;8.20;99.90;;;;;;7389653;19;20134;-71
2022/03/19 05:20:03;;;;;;;34.53;20.03;;;8.20;99.90;;;;;;7388019;19;20632;-74
2022/03/19 05:22:29;;;;;;;33.87;20.80;;;8.20;99.90;;;;;;7388345;19;20138;-73
2022/03/19 05:24:56;;;;;;;34.37;21.07;;;8.20;99.90;;;;;;7389436;19;20155;-71
2022/03/19 05:27:23;;;;;;;30.20;19.47;;;8.10;99.90;;;;;;7385778;19;20147;-70
2022/03/19 05:29:49;;;;;;;30.63;19.30;;;8.10;99.90;;;;;;7388492;19;20212;-72
2022/03/19 05:32:16;;;;;;;32.80;19.60;;;8.10;99.90;;;;;;7386611;19;20154;-73
2022/03/19 05:34:42;;;;;;;29.33;19.43;;;8.20;99.90;;;;;;7390036;19;20130;-74
2022/03/19 05:37:09;;;;;;;33.30;21.27;;;8.20;99.90;;;;;;7393097;19;20619;-74
2022/03/19 05:39:36;;;;;;;32.73;19.90;;;8.30;99.90;;;;;;7390374;19;20134;-73
2022/03/19 05:42:03;;;;;;;30.30;18.73;;;8.20;99.90;;;;;;7387928;19;20149;-73
2022/03/19 05:44:29;;;;;;;32.40;19.50;;;8.20;99.90;;;;;;7391453;19;20130;-70
2022/03/19 05:46:58;;;;;;;31.23;19.60;;;8.00;99.90;;;;;;7386274;19;20150;-72
2022/03/19 05:49:24;;;;;;;34.17;19.93;;;8.00;99.90;;;;;;7390112;19;20256;-72
2022/03/19 05:51:50;;;;;;;31.47;20.40;;;8.00;99.90;;;;;;7387978;19;20127;-71
2022/03/19 05:54:16;;;;;;;30.33;19.60;;;8.00;99.90;;;;;;7387218;19;20655;-73
2022/03/19 05:56:42;;;;;;;36.10;19.73;;;8.00;99.90;;;;;;7390426;19;20133;-72
2022/03/19 05:59:07;;;;;;;31.90;19.87;;;8.10;99.90;;;;;;7389369;19;20201;-72
2022/03/19 06:01:34;;;;;;;32.60;19.90;;;8.10;99.90;;;;;;7386435;19;20151;-71
2022/03/19 06:04:00;;;;;;;29.50;18.77;;;8.10;99.90;;;;;;7388609;19;20130;-74
2022/03/19 06:06:27;;;;;;;28.40;18.07;;;8.10;99.90;;;;;;7387822;19;20582;-71
2022/03/19 06:08:53;;;;;;;29.83;18.90;;;8.20;99.90;;;;;;7387456;19;20127;-73
2022/03/19 06:11:20;;;;;;;30.43;18.67;;;8.20;99.90;;;;;;7386658;19;20139;-71
2022/03/19 06:13:46;;;;;;;33.80;20.57;;;8.30;99.90;;;;;;7388588;19;20127;-72
2022/03/19 06:16:12;;;;;;;30.77;19.17;;;8.30;99.90;;;;;;7387589;19;20432;-73
2022/03/19 06:18:38;;;;;;;28.90;19.00;;;8.30;99.90;;;;;;7390424;19;20135;-72
2022/03/19 06:21:04;;;;;;;32.43;19.27;;;8.20;99.90;;;;;;7386233;19;20135;-71
2022/03/19 06:23:30;;;;;;;32.87;19.40;;;8.30;99.90;;;;;;7385824;19;20134;-74
2022/03/19 06:25:56;;;;;;;32.90;20.07;;;8.40;99.90;;;;;;7387595;19;20135;-73
2022/03/19 06:28:23;;;;;;;29.73;18.50;;;8.50;99.90;;;;;;7386459;19;20135;-71
2022/03/19 06:30:48;;;;;;;31.53;18.37;;;8.50;99.90;;;;;;7384681;19;20494;-71
2022/03/19 06:33:16;;;;;;;34.87;20.87;;;8.60;99.90;;;;;;7385833;19;20263;-72
2022/03/19 06:38:29;;;;;;;32.03;19.27;;;8.60;99.90;;;;;;7386962;19;20472;-72
2022/03/19 06:40:57;;;;;;;31.10;19.13;;;8.60;99.90;;;;;;7388759;19;20271;-72
2022/03/19 06:43:24;;;;;;;27.77;18.00;;;8.50;99.90;;;;;;7385734;19;20139;-72
2022/03/19 06:45:50;;;;;;;30.37;19.33;;;8.50;99.90;;;;;;7385518;19;20138;-73
2022/03/19 06:48:16;;;;;;;31.83;19.53;;;8.50;99.90;;;;;;7387745;19;20254;-73
2022/03/19 06:50:41;;;;;;;34.00;18.87;;;8.50;99.90;;;;;;7386867;19;20134;-72
2022/03/19 06:53:07;;;;;;;30.20;18.87;;;8.50;99.90;;;;;;7384254;19;20134;-72
2022/03/19 06:55:33;;;;;;;28.23;18.43;;;8.50;99.90;;;;;;7386236;19;20122;-71
2022/03/19 06:57:59;;;;;;;30.30;18.37;;;8.50;99.90;;;;;;7386519;19;20147;-72
2022/03/19 07:00:27;;;;;;;30.73;19.70;;;8.60;99.90;;;;;;7387785;19;20661;-72
2022/03/19 07:02:54;;;;;;;33.73;19.50;;;8.60;99.90;;;;;;7390552;19;20485;-72
2022/03/19 07:05:26;;;;;;;31.73;18.90;;;8.60;99.90;;;;;;7390581;19;20123;-74
2022/03/19 07:07:53;;;;;;;29.30;19.00;;;8.50;99.90;;;;;;7386260;19;20131;-73
2022/03/19 07:10:19;;;;;;;33.17;20.23;;;8.60;99.90;;;;;;7385843;19;20134;-74
2022/03/19 07:12:47;;;;;;;30.20;18.23;;;8.60;99.90;;;;;;7384866;19;20126;-74
2022/03/19 07:15:14;;;;;;;31.30;18.50;;;8.50;99.90;;;;;;7386331;19;20599;-71
2022/03/19 07:17:40;;;;;;;30.03;19.03;;;8.40;99.90;;;;;;7383431;19;20130;-72
2022/03/19 07:20:07;;;;;;;32.93;18.97;;;8.50;99.90;;;;;;7385729;19;20126;-72
2022/03/19 07:22:58;;;;;;;30.73;18.67;;;8.30;99.90;;;;;;7392029;19;20131;-72
2022/03/19 07:25:26;;;;;;;28.07;19.50;;;8.50;99.90;;;;;;7388777;19;20138;-73
2022/03/19 07:27:57;;;;;;;30.37;18.40;;;8.60;99.90;;;;;;7382569;19;20734;-74
2022/03/19 07:30:23;;;;;;;30.23;18.73;;;8.50;99.90;;;;;;7386154;19;20580;-72
2022/03/19 07:32:49;;;;;;;30.30;18.67;;;8.60;99.90;;;;;;7385929;19;20146;-73
2022/03/19 07:35:16;;;;;;;29.30;18.07;;;8.70;99.90;;;;;;7387352;19;20240;-73
2022/03/19 07:37:45;;;;;;;28.27;18.60;;;8.80;99.90;;;;;;7386998;19;20155;-73
2022/03/19 07:40:13;;;;;;;33.03;19.43;;;8.80;99.90;;;;;;7389775;19;20126;-74
2022/03/19 07:42:40;;;;;;;31.33;18.97;;;8.90;99.90;;;;;;7389845;19;20131;-72
2022/03/19 07:45:07;;;;;;;29.70;17.83;;;9.00;99.90;;;;;;7387568;19;20138;-74
2022/03/19 07:47:34;;;;;;;33.60;18.10;;;9.10;99.90;;;;;;7387628;19;20139;-72
2022/03/19 07:50:01;;;;;;;28.47;18.27;;;9.20;99.90;;;;;;7384062;19;20131;-73
2022/03/19 07:52:27;;;;;;;31.97;19.00;;;9.30;99.90;;;;;;7383738;19;20130;-74
2022/03/19 07:54:54;;;;;;;28.17;17.83;;;9.30;99.90;;;;;;7387474;19;20142;-72
2022/03/19 07:57:22;;;;;;;29.03;17.30;;;9.30;99.90;;;;;;7384141;19;20135;-74
2022/03/19 07:59:50;;;;;;;25.03;16.53;;;9.20;99.90;;;;;;7385410;19;20151;-75
2022/03/19 08:02:17;;;;;;;25.80;15.83;;;9.40;99.90;;;;;;7383785;19;20126;-74
2022/03/19 08:04:43;;;;;;;27.33;15.77;;;9.50;99.90;;;;;;7385509;19;20131;-73
2022/03/19 08:07:08;;;;;;;27.27;16.53;;;9.60;99.90;;;;;;7388155;19;20142;-72
2022/03/19 08:09:36;;;;;;;22.87;14.93;;;9.60;99.90;;;;;;7387597;19;20821;-73
2022/03/19 08:12:03;;;;;;;26.03;15.93;;;9.70;99.90;;;;;;7385444;19;20460;-74
2022/03/19 08:14:29;;;;;;;21.47;14.73;;;9.70;99.90;;;;;;7387022;19;20134;-73
2022/03/19 08:16:56;;;;;;;27.27;15.13;;;9.80;99.90;;;;;;7384013;19;20675;-73
2022/03/19 08:19:25;;;;;;;25.57;15.13;;;9.80;99.90;;;;;;7383761;19;20146;-74
2022/03/19 08:21:52;;;;;;;23.97;15.07;;;9.90;99.90;;;;;;7385157;19;20131;-72
2022/03/19 08:24:19;;;;;;;25.63;15.47;;;10.00;99.90;;;;;;7384700;19;20165;-75
2022/03/19 08:26:46;;;;;;;22.80;15.27;;;9.90;99.90;;;;;;7383830;19;20191;-73
2022/03/19 08:29:13;;;;;;;21.60;14.13;;;9.90;99.90;;;;;;7386485;19;20184;-73
2022/03/19 08:31:39;;;;;;;22.70;14.70;;;10.00;99.90;;;;;;7383404;19;20510;-75
2022/03/19 08:34:06;;;;;;;20.67;14.33;;;10.10;99.90;;;;;;7385285;19;20497;-72
2022/03/19 08:36:33;;;;;;;21.57;14.73;;;10.20;99.90;;;;;;7385584;19;20167;-70
2022/03/19 08:41:42;;;;;;;20.90;14.23;;;10.30;99.90;;;;;;7387314;19;20134;-71
2022/03/19 08:44:09;;;;;;;23.43;13.10;;;10.30;99.90;;;;;;7383067;19;20133;-70
2022/03/19 08:46:35;;;;;;;20.77;12.97;;;10.50;99.90;;;;;;7382625;19;20137;-70
2022/03/19 08:49:02;;;;;;;21.40;13.47;;;10.70;99.90;;;;;;7383478;19;20135;-68
2022/03/19 08:51:40;;;;;;;21.73;14.37;;;10.70;99.90;;;;;;7389000;19;20237;-68
2022/03/19 08:54:14;;;;;;;20.83;13.53;;;10.70;99.90;;;;;;7377880;19;20134;-71
2022/03/19 08:56:43;;;;;;;21.63;12.83;;;10.70;99.90;;;;;;7381304;19;20150;-70
2022/03/19 08:59:09;;;;;;;21.00;13.27;;;10.80;99.90;;;;;;7384091;19;20143;-69
2022/03/19 09:01:36;;;;;;;20.53;13.13;;;10.90;99.90;;;;;;7382873;19;20744;-68
2022/03/19 09:04:03;;;;;;;18.10;11.97;;;11.10;99.90;;;;;;7391963;19;20167;-69
2022/03/19 09:06:30;;;;;;;20.13;12.87;;;11.10;99.90;;;;;;7387906;19;20169;-71
2022/03/19 09:08:56;;;;;;;20.60;12.40;;;11.20;99.90;;;;;;7389774;19;20150;-70
2022/03/19 09:11:23;;;;;;;18.03;12.13;;;11.20;99.60;;;;;;7384393;19;20472;-69
2022/03/19 09:13:50;;;;;;;19.87;12.23;;;11.30;99.70;;;;;;7386509;19;20559;-70
2022/03/19 09:16:17;;;;;;;20.40;12.83;;;11.50;99.90;;;;;;7388407;19;20194;-70
2022/03/19 09:18:43;;;;;;;24.43;13.73;;;11.70;99.00;;;;;;7384970;19;20501;-69
2022/03/19 09:21:09;;;;;;;21.37;13.97;;;11.60;98.80;;;;;;7384267;19;20259;-70
2022/03/19 09:23:35;;;;;;;21.30;13.67;;;11.60;99.00;;;;;;7387255;19;20137;-70
2022/03/19 09:26:01;;;;;;;21.23;13.37;;;11.50;99.00;;;;;;7387206;19;20198;-69
2022/03/19 09:28:27;;;;;;;20.93;13.47;;;11.50;99.10;;;;;;7386440;19;20491;-69
2022/03/19 09:30:53;;;;;;;23.47;14.23;;;11.30;99.10;;;;;;7391517;19;20142;-74
2022/03/19 09:33:20;;;;;;;20.97;13.23;;;11.40;99.10;;;;;;7386112;19;20134;-72
2022/03/19 09:35:47;;;;;;;20.33;13.50;;;11.60;99.30;;;;;;7386647;19;20138;-73
2022/03/19 09:38:17;;;;;;;22.93;13.63;;;11.50;99.00;;;;;;7391676;19;20135;-75
2022/03/19 09:40:43;;;;;;;22.67;14.23;;;11.50;99.10;;;;;;7390657;19;20134;-68
2022/03/19 09:43:10;;;;;;;22.90;13.90;;;11.70;99.50;;;;;;7386882;19;20127;-73
2022/03/19 09:45:38;;;;;;;22.50;13.37;;;11.90;98.70;;;;;;7390564;19;20138;-66
2022/03/19 09:48:04;;;;;;;21.00;14.00;;;12.00;98.60;;;;;;7386244;19;20218;-68
2022/03/19 09:50:31;;;;;;;21.30;13.30;;;12.00;98.40;;;;;;7388735;19;20155;-67
2022/03/19 09:52:58;;;;;;;23.83;14.07;;;11.90;98.30;;;;;;7389592;19;20163;-73
2022/03/19 09:55:27;;;;;;;22.97;14.00;;;11.90;98.30;;;;;;7388542;19;20238;-66
2022/03/19 09:57:54;;;;;;;18.93;13.47;;;12.10;97.90;;;;;;7389405;19;20179;-66
2022/03/19 10:00:22;;;;;;;20.57;13.00;;;12.10;97.60;;;;;;7388073;19;20150;-68
2022/03/19 10:02:54;;;;;;;23.63;13.83;;;12.10;97.80;;;;;;7389171;19;20135;-75
2022/03/19 10:10:55;;;;;;;21.53;13.10;;;12.30;97.30;;;;;;7391727;19;20126;-68
2022/03/19 10:13:23;;;;;;;17.77;12.30;;;12.30;97.00;;;;;;7385142;19;20499;-70
2022/03/19 10:15:48;;;;;;;22.47;13.40;;;12.30;96.50;;;;;;7388627;19;20162;-69
2022/03/19 10:18:14;;;;;;;18.80;13.23;;;12.30;96.60;;;;;;7389025;19;20138;-68
2022/03/19 10:20:40;;;;;;;19.60;13.53;;;12.50;96.60;;;;;;7387869;19;20233;-70
2022/03/19 10:23:06;;;;;;;20.77;14.57;;;12.60;95.90;;;;;;7384124;19;20167;-67
2022/03/19 10:25:32;;;;;;;19.30;13.50;;;12.50;96.10;;;;;;7387846;19;20229;-74
2022/03/19 10:28:08;;;;;;;21.30;14.23;;;12.60;96.30;;;;;;7384469;19;20206;-68
2022/03/19 10:30:39;;;;;;;19.80;13.07;;;12.60;95.60;;;;;;7386990;19;20156;-67
2022/03/19 10:33:08;;;;;;;20.80;13.97;;;12.60;95.80;;;;;;7387927;19;20138;-67
2022/03/19 10:35:42;;;;;;;23.17;13.53;;;12.60;96.10;;;;;;7389157;19;20134;-73
2022/03/19 10:38:22;;;;;;;23.27;13.30;;;12.60;96.40;;;;;;7385027;19;20156;-67
2022/03/19 10:40:51;;;;;;;24.92;15.13;;;12.70;96.20;;;;;;7385154;19;21224;-69
2022/03/19 10:43:19;;;;;;;21.43;15.20;;;12.70;96.30;;;;;;7388974;19;20526;-68
2022/03/19 10:45:48;;;;;;;21.60;15.13;;;12.90;96.30;;;;;;7389393;19;20138;-73
2022/03/19 10:48:25;;;;;;;23.85;16.35;;;12.80;96.40;;;;;;7386976;19;20379;-65
2022/03/19 10:50:52;;;;;;;24.85;15.65;;;13.00;96.60;;;;;;7387532;19;20363;-72
2022/03/19 10:53:20;;;;;;;23.63;17.63;;;13.10;96.60;;;;;;7386966;19;20482;-67
2022/03/19 10:55:46;;;;;;;22.55;17.00;;;13.30;96.50;;;;;;7386200;19;20399;-67
2022/03/19 10:58:12;;;;;;;22.07;16.17;;;13.40;96.40;;;;;;7379301;19;20237;-69
2022/03/19 11:00:39;;;;;;;20.80;15.20;;;13.30;96.40;;;;;;7387102;19;20131;-67
2022/03/19 11:03:27;;;;;;;28.73;17.07;;;13.10;96.70;;;;;;7387622;19;20171;-69
2022/03/19 11:06:00;;;;;;;26.00;17.57;;;13.20;97.00;;;;;;7386594;19;20138;-78
2022/03/19 11:08:28;;;;;;;22.70;15.03;;;13.00;97.20;;;;;;7387791;19;20139;-68
2022/03/19 11:10:57;;;;;;;22.17;15.17;;;12.90;97.50;;;;;;7389977;19;20123;-68
2022/03/19 11:13:27;;;;;;;22.73;15.47;;;13.10;97.00;;;;;;7389938;19;20160;-73
2022/03/19 11:15:57;;;;;;;18.43;13.03;;;13.00;96.40;;;;;;7387504;19;20538;-74
2022/03/19 11:18:24;;;;;;;19.57;14.00;;;13.00;96.40;;;;;;7382145;19;20154;-69
2022/03/19 11:20:50;;;;;;;22.20;13.17;;;13.00;96.10;;;;;;7383328;19;20633;-70
2022/03/19 11:23:30;;;;;;;18.53;12.43;;;13.10;95.90;;;;;;7378878;19;20139;-72
2022/03/19 11:26:01;;;;;;;16.03;10.77;;;13.30;95.60;;;;;;7372941;19;20141;-74
2022/03/19 11:28:27;;;;;;;16.03;10.50;;;13.50;94.50;;;;;;7376104;19;20158;-72
2022/03/19 11:31:09;;;;;;;14.17;9.53;;;13.40;93.40;;;;;;7376546;19;20670;-73
2022/03/19 11:33:37;;;;;;;14.23;9.70;;;13.40;93.30;;;;;;7378873;19;20142;-73
2022/03/19 11:36:06;;;;;;;13.47;9.13;;;13.50;92.90;;;;;;7379039;19;20133;-69
2022/03/19 11:38:38;;;;;;;16.50;9.33;;;13.50;93.00;;;;;;7379582;19;20138;-68
2022/03/19 11:41:27;;;;;;;12.63;7.90;;;13.50;93.20;;;;;;7386929;19;20142;-73
2022/03/19 11:44:20;;;;;;;10.50;7.70;;;13.40;93.00;;;;;;7387220;19;20135;-72
2022/03/19 11:47:08;;;;;;;13.97;8.67;;;13.40;93.10;;;;;;7383993;19;20522;-69
2022/03/19 11:49:53;;;;;;;12.77;7.87;;;13.40;93.20;;;;;;7385620;19;20163;-72
2022/03/19 11:52:42;;;;;;;12.23;7.87;;;13.20;93.10;;;;;;7384885;19;20484;-68
2022/03/19 11:55:10;;;;;;;13.03;8.20;;;13.30;93.20;;;;;;7400976;19;20138;-69
2022/03/19 11:57:45;;;;;;;12.53;7.27;;;13.30;93.10;;;;;;7384157;19;20123;-69
2022/03/19 12:00:13;;;;;;;11.90;7.50;;;13.20;93.60;;;;;;7384541;19;20133;-67
2022/03/19 12:03:19;;;;;;;10.97;6.90;;;13.30;93.50;;;;;;7384443;19;20127;-73
2022/03/19 12:05:46;;;;;;;12.17;6.60;;;13.40;93.50;;;;;;7387304;19;20134;-73
2022/03/19 12:08:19;;;;;;;10.93;6.60;;;13.40;92.90;;;;;;7386040;19;20228;-71
2022/03/19 12:10:59;;;;;;;12.07;6.60;;;13.50;92.50;;;;;;7385833;19;20155;-70
2022/03/19 12:13:28;;;;;;;10.43;6.43;;;13.50;92.40;;;;;;7383487;19;20209;-74
2022/03/19 12:16:04;;;;;;;10.43;7.03;;;13.50;91.60;;;;;;7390941;19;20681;-73
2022/03/19 12:18:39;;;;;;;10.97;6.70;;;13.50;91.60;;;;;;7384699;19;20149;-71
2022/03/19 12:21:16;;;;;;;11.37;7.10;;;13.20;92.20;;;;;;7384523;19;20130;-74
2022/03/19 12:23:56;;;;;;;10.47;6.80;;;13.20;92.20;;;;;;7386101;19;20130;-72
2022/03/19 12:26:23;;;;;;;11.27;6.67;;;13.20;92.30;;;;;;7384243;19;20162;-72
2022/03/19 12:29:03;;;;;;;11.07;6.53;;;13.40;92.30;;;;;;7382149;19;20151;-73
2022/03/19 12:31:32;;;;;;;9.53;7.07;;;13.40;91.40;;;;;;7379065;19;20198;-73
2022/03/19 12:33:59;;;;;;;10.40;6.27;;;13.40;91.20;;;;;;7380710;19;20684;-72
2022/03/19 12:36:26;;;;;;;8.37;5.67;;;13.40;91.10;;;;;;7381945;19;20131;-71
2022/03/19 12:38:52;;;;;;;11.57;5.93;;;13.60;91.00;;;;;;7392122;19;20138;-72
2022/03/19 12:41:23;;;;;;;9.97;6.40;;;13.80;90.70;;;;;;7388180;19;20139;-71
2022/03/19 12:43:50;;;;;;;10.63;6.63;;;13.80;91.10;;;;;;7391180;19;20164;-71
2022/03/19 12:46:30;;;;;;;11.30;6.73;;;13.50;91.60;;;;;;7392300;19;20134;-75
2022/03/19 12:49:25;;;;;;;8.73;5.83;;;13.30;91.90;;;;;;7391709;19;20154;-71
2022/03/19 12:51:51;;;;;;;8.63;5.70;;;13.20;92.00;;;;;;7389376;19;20540;-74
2022/03/19 12:54:26;;;;;;;8.83;5.50;;;13.10;89.90;;;;;;7391302;19;20178;-74
2022/03/19 12:56:54;;;;;;;10.07;5.80;;;13.00;90.30;;;;;;7390422;19;20210;-72
2022/03/19 12:59:25;;;;;;;10.27;5.73;;;12.90;90.20;;;;;;7389866;19;20624;-71
2022/03/19 13:01:52;;;;;;;7.80;4.93;;;13.00;90.30;;;;;;7394407;19;20127;-73